Time;durP1;ratioP1;P1;durP2;ratioP2;P2;SDS_P1;SDS_P2;PMS_P1;PMS_P2;Temp;Humidity;BMP_temperature;BMP_pressure;BME280_temperature;BME280_humidity;BME280_pressure;Samples;Min_cycle;Max_cycle;Signal;HPM_P1;HPM_P2
2023/08/06 00:00:30;;;;;;;1.33;1.23;;;;;;;19.90;100.00;98165.16;5095991;28;20066;-65
2023/08/06 00:02:59;;;;;;;3.92;2.00;;;;;;;19.86;100.00;98174.06;5094978;28;20048;-66
2023/08/06 00:05:29;;;;;;;2.00;1.60;;;;;;;19.87;100.00;98154.97;5095301;28;20428;-66
2023/08/06 00:07:58;;;;;;;2.22;1.92;;;;;;;19.87;100.00;98138.59;5094985;28;20040;-65
2023/08/06 00:10:27;;;;;;;1.83;1.70;;;;;;;19.84;100.00;98144.81;5094934;28;20055;-65
2023/08/06 00:12:56;;;;;;;2.05;1.77;;;;;;;19.85;100.00;98151.66;5094964;28;20071;-65
2023/08/06 00:15:27;;;;;;;2.03;1.77;;;;;;;19.87;100.00;98136.84;5094766;28;20036;-65
2023/08/06 00:17:56;;;;;;;1.23;0.95;;;;;;;19.90;100.00;98128.91;5094848;28;20043;-64
2023/08/06 00:20:25;;;;;;;2.13;1.50;;;;;;;19.95;100.00;98116.50;5094724;28;20040;-65
2023/08/06 00:22:54;;;;;;;6.13;2.78;;;;;;;19.99;100.00;98117.09;5094927;28;20044;-65
2023/08/06 00:25:23;;;;;;;1.13;1.00;;;;;;;19.99;100.00;98130.91;5094656;28;20055;-65
2023/08/06 00:27:52;;;;;;;2.05;1.73;;;;;;;19.93;100.00;98148.59;5095061;28;20032;-65
2023/08/06 00:30:20;;;;;;;3.03;2.05;;;;;;;19.85;100.00;98138.72;5094824;28;20043;-65
2023/08/06 00:32:53;;;;;;;3.80;2.10;;;;;;;19.79;100.00;98128.75;5095164;28;20052;-65
2023/08/06 00:35:22;;;;;;;2.47;2.03;;;;;;;19.78;100.00;98134.84;5092682;28;20048;-65
2023/08/06 00:37:51;;;;;;;3.15;1.92;;;;;;;19.74;100.00;98138.56;5092923;28;20051;-66
2023/08/06 00:40:22;;;;;;;1.50;1.38;;;;;;;19.75;100.00;98122.09;5093263;28;20558;-65
2023/08/06 00:42:51;;;;;;;4.28;2.42;;;;;;;19.72;100.00;98119.72;5094684;28;20044;-65
2023/08/06 00:45:20;;;;;;;3.03;2.42;;;;;;;19.72;100.00;98124.88;5094248;28;20071;-67
2023/08/06 00:47:50;;;;;;;2.28;2.08;;;;;;;19.69;100.00;98122.47;5094213;28;20493;-67
2023/08/06 00:50:22;;;;;;;1.58;1.20;;;;;;;19.66;100.00;98120.06;5094823;28;20047;-67
2023/08/06 00:52:51;;;;;;;1.90;1.63;;;;;;;19.68;100.00;98112.19;5094509;28;20048;-68
2023/08/06 00:55:20;;;;;;;2.88;1.60;;;;;;;19.68;100.00;98113.03;5094068;28;20040;-67
2023/08/06 00:57:51;;;;;;;2.15;1.95;;;;;;;19.67;100.00;98120.91;5094153;28;20047;-68
2023/08/06 01:00:20;;;;;;;4.20;2.20;;;;;;;19.63;100.00;98112.50;5094687;28;20382;-67
2023/08/06 01:02:51;;;;;;;3.08;1.67;;;;;;;19.62;100.00;98113.44;5094345;28;20379;-65
2023/08/06 01:05:23;;;;;;;2.13;1.67;;;;;;;19.63;100.00;98109.91;5093950;28;20076;-67
2023/08/06 01:08:08;;;;;;;3.13;1.70;;;;;;;19.64;100.00;98110.75;5094172;28;20036;-66
2023/08/06 01:10:49;;;;;;;2.72;1.65;;;;;;;19.64;100.00;98111.59;5092810;28;20398;-65
2023/08/06 01:13:25;;;;;;;2.58;2.05;;;;;;;19.65;100.00;98113.22;5093872;28;20048;-66
2023/08/06 01:15:57;;;;;;;2.28;1.83;;;;;;;19.64;100.00;98106.41;5093797;28;20105;-66
2023/08/06 01:18:26;;;;;;;2.42;1.75;;;;;;;19.64;100.00;98098.63;5092991;28;20066;-65
2023/08/06 01:20:57;;;;;;;2.65;1.85;;;;;;;19.65;100.00;98102.06;5092587;28;20048;-65
2023/08/06 01:23:26;;;;;;;2.35;1.50;;;;;;;19.64;100.00;98095.22;5094074;28;20040;-64
2023/08/06 01:26:06;;;;;;;2.40;1.90;;;;;;;19.63;100.00;98094.38;5093955;28;20509;-65
2023/08/06 01:28:44;;;;;;;2.67;1.95;;;;;;;19.60;100.00;98084.22;5094240;28;20466;-65
2023/08/06 01:31:20;;;;;;;2.25;2.00;;;;;;;19.59;100.00;98092.91;5094552;28;20048;-65
2023/08/06 01:33:50;;;;;;;1.15;1.05;;;;;;;19.57;100.00;98089.59;5092816;28;20138;-65
2023/08/06 01:36:23;;;;;;;8.10;1.83;;;;;;;19.58;100.00;98074.91;5092710;28;20044;-65
2023/08/06 01:38:53;;;;;;;3.95;1.88;;;;;;;19.58;100.00;98074.91;5092127;28;20052;-65
2023/08/06 01:41:22;;;;;;;3.53;2.25;;;;;;;19.60;100.00;98063.53;5092389;28;20505;-65
2023/08/06 01:43:51;;;;;;;1.38;1.27;;;;;;;19.60;100.00;98063.53;5093591;28;20115;-64
2023/08/06 01:46:20;;;;;;;3.38;3.03;;;;;;;19.64;100.00;98052.03;5092235;28;20127;-64
2023/08/06 01:48:49;;;;;;;1.80;1.30;;;;;;;19.66;100.00;98052.78;5097467;28;20123;-64
2023/08/06 01:51:20;;;;;;;7.40;2.60;;;;;;;19.65;100.00;98056.28;5096410;28;20093;-64
2023/08/06 01:53:48;;;;;;;1.88;1.40;;;;;;;19.63;100.00;98058.13;5098969;28;20044;-64
2023/08/06 01:56:20;;;;;;;1.95;1.73;;;;;;;19.61;100.00;98054.81;5097459;28;20093;-66
2023/08/06 01:58:49;;;;;;;1.75;1.55;;;;;;;19.61;100.00;98048.81;5096590;28;20546;-65
2023/08/06 02:01:18;;;;;;;2.88;1.52;;;;;;;19.56;100.00;98036.16;5096341;28;20068;-65
2023/08/06 02:03:47;;;;;;;1.90;1.70;;;;;;;19.54;100.00;98045.78;5097381;28;20058;-65
2023/08/06 02:06:16;;;;;;;2.83;1.75;;;;;;;19.54;100.00;98048.38;5096166;28;20051;-65
2023/08/06 02:08:48;;;;;;;2.40;2.13;;;;;;;19.54;100.00;98044.94;5097222;28;20052;-64
2023/08/06 02:11:16;;;;;;;1.80;1.65;;;;;;;19.55;100.00;98039.69;5097284;28;20040;-65
2023/08/06 02:13:47;;;;;;;4.05;1.90;;;;;;;19.55;100.00;98031.94;5096118;28;20143;-65
2023/08/06 02:16:20;;;;;;;3.53;2.13;;;;;;;19.56;100.00;98025.81;5097523;28;20048;-66
2023/08/06 02:18:49;;;;;;;4.22;1.60;;;;;;;19.53;100.00;98026.00;5096180;28;20160;-66
2023/08/06 02:21:26;;;;;;;1.15;1.05;;;;;;;19.54;100.00;98016.47;5097166;28;20485;-64
2023/08/06 02:23:57;;;;;;;3.00;1.80;;;;;;;19.53;100.00;98007.88;5097404;28;20064;-65
2023/08/06 02:26:26;;;;;;;1.98;1.77;;;;;;;19.53;100.00;98005.28;5097183;28;20044;-65
2023/08/06 02:28:57;;;;;;;2.10;1.92;;;;;;;19.54;100.00;98006.97;5095595;28;20044;-65
2023/08/06 02:31:26;;;;;;;3.03;2.30;;;;;;;19.55;100.00;98002.63;5097451;28;20113;-66
2023/08/06 02:33:55;;;;;;;1.60;1.50;;;;;;;19.56;100.00;98002.50;5096879;28;20044;-66
2023/08/06 02:36:24;;;;;;;1.83;1.50;;;;;;;19.53;100.00;98000.09;5097206;28;20036;-65
2023/08/06 02:38:53;;;;;;;2.45;2.08;;;;;;;19.50;100.00;97987.38;5095513;28;20047;-66
2023/08/06 02:41:25;;;;;;;2.00;1.80;;;;;;;19.50;100.00;97984.81;5097027;28;20046;-65
2023/08/06 02:43:54;;;;;;;0.93;0.90;;;;;;;19.50;100.00;97969.28;5097264;28;20072;-65
2023/08/06 02:46:24;;;;;;;1.05;0.98;;;;;;;19.52;100.00;97964.81;5096631;28;20048;-64
2023/08/06 02:48:53;;;;;;;1.42;1.33;;;;;;;19.49;100.00;97970.19;5095557;28;20048;-65
2023/08/06 02:51:22;;;;;;;2.25;1.15;;;;;;;19.47;100.00;97972.06;5096794;28;20375;-65
2023/08/06 02:53:51;;;;;;;2.33;1.63;;;;;;;19.45;100.00;97966.16;5095557;28;20040;-65
2023/08/06 02:56:22;;;;;;;1.92;1.40;;;;;;;19.42;100.00;97971.50;5096484;28;20056;-65
2023/08/06 02:59:04;;;;;;;1.23;0.95;;;;;;;19.41;100.00;97980.22;5095091;28;20131;-65
2023/08/06 03:01:44;;;;;;;1.02;0.93;;;;;;;19.37;100.00;97983.91;5096397;28;20054;-65
2023/08/06 03:04:20;;;;;;;0.90;0.85;;;;;;;19.31;100.00;97979.09;5095289;28;20146;-65
2023/08/06 03:06:51;;;;;;;1.17;1.05;;;;;;;19.23;100.00;97991.69;5096239;28;20494;-65
2023/08/06 03:09:22;;;;;;;1.45;0.93;;;;;;;19.18;100.00;97988.53;5096306;28;20040;-65
2023/08/06 03:11:53;;;;;;;0.70;0.70;;;;;;;19.13;100.00;97990.59;5096431;28;20048;-65
2023/08/06 03:14:23;;;;;;;;;;;;;;;19.08;100.00;97988.28;5095269;28;20040;-65
2023/08/06 03:16:53;;;;;;;0.80;0.70;;;;;;;19.13;100.00;97977.66;5096424;28;19946;-65
2023/08/06 03:19:22;;;;;;;1.77;1.13;;;;;;;19.11;100.00;97969.16;5094672;28;20541;-65
2023/08/06 03:21:51;;;;;;;0.90;0.82;;;;;;;19.16;100.00;97969.72;5094735;28;20097;-64
2023/08/06 03:24:21;;;;;;;0.80;0.80;;;;;;;19.16;100.00;97969.72;5095821;28;20047;-65
2023/08/06 03:26:49;;;;;;;1.08;0.85;;;;;;;19.15;100.00;97968.03;5094825;28;20126;-65
2023/08/06 03:29:19;;;;;;;0.70;0.70;;;;;;;19.06;100.00;97968.63;5094584;28;20394;-65
2023/08/06 03:31:49;;;;;;;0.70;0.70;;;;;;;19.01;100.00;97965.47;5095893;28;20054;-65
2023/08/06 03:34:19;;;;;;;0.80;0.80;;;;;;;19.00;100.00;97963.84;5095736;28;20040;-65
2023/08/06 03:36:50;;;;;;;1.35;1.25;;;;;;;18.90;100.00;97958.41;5096193;28;20048;-65
2023/08/06 03:39:19;;;;;;;0.65;0.65;;;;;;;18.83;100.00;97954.53;5095932;28;20056;-65
2023/08/06 03:41:48;;;;;;;0.55;0.55;;;;;;;18.83;100.00;97961.47;5095474;28;20036;-65
2023/08/06 03:44:17;;;;;;;0.75;0.75;;;;;;;18.78;100.00;97959.16;5095545;28;20062;-65
2023/08/06 03:46:49;;;;;;;0.50;0.50;;;;;;;18.74;100.00;97953.34;5096060;28;20052;-65
2023/08/06 03:49:18;;;;;;;0.55;0.55;;;;;;;18.72;100.00;97955.19;5094213;28;20424;-65
2023/08/06 03:51:47;;;;;;;0.85;0.85;;;;;;;18.71;100.00;97956.09;5095291;28;20044;-65
2023/08/06 03:54:16;;;;;;;0.50;0.50;;;;;;;18.68;100.00;97956.31;5095672;28;20089;-64
2023/08/06 03:56:46;;;;;;;0.68;0.63;;;;;;;18.64;100.00;97952.22;5094286;28;20063;-65
2023/08/06 03:59:17;;;;;;;0.50;0.50;;;;;;;18.64;100.00;97954.00;5095539;28;20561;-65
2023/08/06 04:01:49;;;;;;;1.60;1.13;;;;;;;18.68;100.00;97952.88;5095665;28;20134;-65
2023/08/06 04:04:19;;;;;;;0.57;0.57;;;;;;;18.63;100.00;97945.41;5095190;28;20044;-65
2023/08/06 04:06:48;;;;;;;0.40;0.40;;;;;;;18.60;100.00;97943.03;5093963;28;20515;-65
2023/08/06 04:09:18;;;;;;;0.50;0.50;;;;;;;18.57;99.93;97930.28;5093275;28;20444;-65
2023/08/06 04:11:47;;;;;;;0.47;0.47;;;;;;;18.59;99.76;97928.47;5094863;28;20075;-65
2023/08/06 04:14:15;;;;;;;0.60;0.60;;;;;;;18.56;99.56;97933.81;5093744;28;20051;-64
2023/08/06 04:16:44;;;;;;;0.80;0.80;;;;;;;18.55;99.45;97926.97;5095215;28;20036;-64
2023/08/06 04:19:15;;;;;;;1.17;0.60;;;;;;;18.54;99.37;97935.66;5094815;28;20067;-65
2023/08/06 04:21:44;;;;;;;0.43;0.43;;;;;;;18.54;99.16;97929.66;5095024;28;20436;-65
2023/08/06 04:24:13;;;;;;;0.60;0.60;;;;;;;18.51;99.06;97935.84;5093869;28;20085;-64
2023/08/06 04:26:42;;;;;;;5.85;0.88;;;;;;;18.49;99.09;97932.50;5094914;28;20470;-65
2023/08/06 04:29:12;;;;;;;0.38;0.38;;;;;;;18.44;98.81;97934.50;5093997;28;20406;-65
2023/08/06 04:31:42;;;;;;;0.45;0.45;;;;;;;18.38;98.78;97924.53;5093968;28;20359;-64
2023/08/06 04:34:11;;;;;;;0.40;0.40;;;;;;;18.29;98.50;97924.25;5094238;28;20117;-64
2023/08/06 04:36:41;;;;;;;0.45;0.45;;;;;;;18.28;98.73;97928.63;5093673;28;20044;-64
2023/08/06 04:39:11;;;;;;;0.40;0.40;;;;;;;18.26;98.73;97925.25;5093189;28;20044;-64
2023/08/06 04:41:41;;;;;;;0.43;0.43;;;;;;;18.18;98.55;97922.31;5093217;28;20040;-64
2023/08/06 04:44:10;;;;;;;0.60;0.60;;;;;;;18.12;98.57;97925.25;5093110;28;20046;-65
2023/08/06 04:46:40;;;;;;;0.55;0.55;;;;;;;18.12;98.82;97922.69;5094634;28;20405;-65
2023/08/06 04:49:09;;;;;;;0.40;0.40;;;;;;;18.08;98.85;97931.53;5094866;28;20040;-65
2023/08/06 04:51:38;;;;;;;0.45;0.45;;;;;;;18.06;98.54;97930.78;5094192;28;20564;-65
2023/08/06 04:54:08;;;;;;;0.40;0.40;;;;;;;18.05;99.20;97934.28;5094585;28;20430;-65
2023/08/06 04:56:37;;;;;;;0.40;0.40;;;;;;;18.12;99.30;97930.41;5094996;28;20044;-64
2023/08/06 04:59:06;;;;;;;0.43;0.43;;;;;;;18.15;99.18;97932.00;5094419;28;20048;-65
2023/08/06 05:01:35;;;;;;;0.47;0.47;;;;;;;18.16;99.14;97938.84;5094431;28;20043;-65
2023/08/06 05:04:05;;;;;;;0.50;0.50;;;;;;;18.15;99.17;97938.00;5093984;28;20036;-65
2023/08/06 05:06:33;;;;;;;0.50;0.50;;;;;;;18.12;99.10;97933.00;5094607;28;20534;-64
2023/08/06 05:09:02;;;;;;;0.80;0.77;;;;;;;18.11;99.06;97936.53;5093959;28;20494;-65
2023/08/06 05:11:33;;;;;;;0.40;0.40;;;;;;;18.05;99.21;97931.72;5094164;28;20513;-65
2023/08/06 05:14:02;;;;;;;0.40;0.40;;;;;;;18.04;99.22;97930.88;5094297;28;20284;-65
2023/08/06 05:16:30;;;;;;;0.40;0.40;;;;;;;18.03;99.41;97928.38;5094472;28;20032;-64
2023/08/06 05:19:00;;;;;;;0.45;0.45;;;;;;;18.00;99.33;97928.56;5093898;28;20062;-64
2023/08/06 05:21:28;;;;;;;0.40;0.40;;;;;;;18.01;99.48;97925.06;5094336;28;20044;-64
2023/08/06 05:23:57;;;;;;;0.50;0.50;;;;;;;18.02;99.38;97917.22;5093735;28;20122;-64
2023/08/06 05:26:26;;;;;;;0.30;0.30;;;;;;;18.05;99.57;97918.78;5093819;28;20052;-64
2023/08/06 05:28:57;;;;;;;0.40;0.40;;;;;;;18.05;99.53;97916.22;5093747;28;20044;-64
2023/08/06 05:31:25;;;;;;;1.45;1.20;;;;;;;18.03;99.58;97918.91;5093635;28;20048;-63
2023/08/06 05:33:54;;;;;;;0.40;0.40;;;;;;;18.04;99.40;97914.56;5093563;28;20037;-63
2023/08/06 05:36:23;;;;;;;0.40;0.40;;;;;;;18.02;99.67;97913.81;5094470;28;20393;-65
2023/08/06 05:38:55;;;;;;;0.40;0.40;;;;;;;18.02;99.51;97916.38;5093855;28;20052;-65
2023/08/06 05:41:23;;;;;;;0.40;0.40;;;;;;;18.03;99.54;97912.91;5093783;28;20051;-65
2023/08/06 05:43:52;;;;;;;0.47;0.47;;;;;;;18.07;99.45;97914.38;5092046;28;20433;-64
2023/08/06 05:46:23;;;;;;;0.40;0.40;;;;;;;18.09;99.50;97902.22;5093750;28;20075;-65
2023/08/06 05:48:52;;;;;;;0.40;0.40;;;;;;;18.19;99.55;97907.66;5093495;28;20109;-65
2023/08/06 05:51:21;;;;;;;0.40;0.40;;;;;;;18.27;99.35;97900.28;5093419;28;20066;-65
2023/08/06 05:53:50;;;;;;;0.40;0.40;;;;;;;18.27;99.36;97901.09;5093428;28;20114;-65
2023/08/06 05:56:19;;;;;;;0.32;0.32;;;;;;;18.37;99.21;97903.97;5093399;28;20405;-65
2023/08/06 05:58:48;;;;;;;0.40;0.40;;;;;;;18.45;99.02;97905.16;5093776;28;20029;-64
2023/08/06 06:01:17;;;;;;;0.40;0.40;;;;;;;18.50;98.98;97897.97;5093424;28;20135;-64
2023/08/06 06:03:47;;;;;;;0.40;0.40;;;;;;;18.55;98.69;97902.88;5093605;28;20044;-64
2023/08/06 06:06:18;;;;;;;0.50;0.50;;;;;;;18.60;98.73;97904.25;5093380;28;20052;-64
2023/08/06 06:08:47;;;;;;;0.40;0.40;;;;;;;18.63;98.62;97909.25;5093424;28;20044;-64
2023/08/06 06:11:15;;;;;;;0.30;0.30;;;;;;;18.61;98.45;97905.09;5093529;28;20398;-64
2023/08/06 06:13:44;;;;;;;0.45;0.45;;;;;;;18.60;98.42;97899.09;5093549;28;20517;-64
2023/08/06 06:16:13;;;;;;;0.47;0.47;;;;;;;18.56;98.34;97902.78;5093214;28;20042;-65
2023/08/06 06:18:42;;;;;;;0.30;0.30;;;;;;;18.51;98.12;97904.81;5093188;28;20127;-65
2023/08/06 06:21:13;;;;;;;0.40;0.40;;;;;;;18.49;98.18;97906.69;5093557;28;20467;-65
2023/08/06 06:23:42;;;;;;;0.32;0.32;;;;;;;18.56;98.27;97905.38;5093392;28;20078;-65
2023/08/06 06:26:11;;;;;;;0.40;0.40;;;;;;;18.64;98.11;97897.97;5093162;28;20044;-65
2023/08/06 06:28:39;;;;;;;0.68;0.68;;;;;;;18.63;97.85;97898.06;5093107;28;20051;-65
2023/08/06 06:31:09;;;;;;;0.40;0.40;;;;;;;18.63;97.76;97898.06;5092692;28;20044;-66
2023/08/06 06:33:37;;;;;;;;;;;;;;;18.61;97.58;97900.75;5095218;28;20043;-66
2023/08/06 06:36:08;;;;;;;0.50;0.50;;;;;;;18.68;97.28;97901.19;5083559;28;19920;-66
2023/08/06 06:38:39;;;;;;;0.38;0.38;;;;;;;18.62;96.83;97899.81;5076512;28;20061;-66
2023/08/06 06:41:08;;;;;;;0.40;0.40;;;;;;;18.57;96.65;97888.94;5076442;28;20083;-65
2023/08/06 06:43:37;;;;;;;0.40;0.40;;;;;;;18.58;96.10;97911.28;5092050;28;20045;-65
2023/08/06 06:46:07;;;;;;;0.40;0.40;;;;;;;18.51;95.50;97910.00;5076415;28;20131;-67
2023/08/06 06:48:35;;;;;;;0.40;0.40;;;;;;;18.51;95.41;97915.16;5076587;28;20049;-65
2023/08/06 06:51:04;;;;;;;0.40;0.40;;;;;;;18.48;94.87;97920.50;5076559;28;20110;-65
2023/08/06 06:53:33;;;;;;;0.40;0.40;;;;;;;18.48;94.56;97925.69;5076513;28;20040;-66
2023/08/06 06:56:05;;;;;;;0.40;0.40;;;;;;;18.47;94.29;97918.88;5076303;28;20052;-65
2023/08/06 06:58:34;;;;;;;0.40;0.40;;;;;;;18.48;94.12;97920.50;5076158;28;20045;-66
2023/08/06 07:01:03;;;;;;;0.38;0.38;;;;;;;18.42;93.86;97918.28;5076042;28;20049;-66
2023/08/06 07:03:32;;;;;;;0.40;0.40;;;;;;;18.31;93.81;97915.50;5076087;28;20078;-66
2023/08/06 07:06:01;;;;;;;0.50;0.50;;;;;;;18.28;93.69;97913.13;5074780;28;20127;-66
2023/08/06 07:08:30;;;;;;;0.40;0.40;;;;;;;18.22;93.41;97923.78;5075984;28;20051;-66
2023/08/06 07:11:04;;;;;;;0.40;0.40;;;;;;;18.18;93.07;97917.16;5076136;28;20289;-66
2023/08/06 07:13:33;;;;;;;0.40;0.40;;;;;;;18.15;92.91;97925.09;5076006;28;20486;-65
2023/08/06 07:16:03;;;;;;;0.30;0.30;;;;;;;18.14;92.79;97925.19;5075767;28;20131;-65
2023/08/06 07:18:31;;;;;;;0.50;0.50;;;;;;;18.10;92.63;97921.94;5075795;28;20094;-66
2023/08/06 07:21:00;;;;;;;0.40;0.40;;;;;;;18.03;92.45;97921.47;5075768;28;20072;-65
2023/08/06 07:23:29;;;;;;;0.40;0.40;;;;;;;18.05;92.46;97926.53;5075695;28;20278;-65
2023/08/06 07:25:58;;;;;;;0.40;0.40;;;;;;;18.05;92.43;97926.53;5075756;28;20043;-65
2023/08/06 07:28:28;;;;;;;0.40;0.40;;;;;;;17.95;92.37;97922.84;5075781;28;20036;-66
2023/08/06 07:30:57;;;;;;;0.40;0.40;;;;;;;17.94;92.42;97922.03;5075528;28;20052;-65
2023/08/06 07:33:26;;;;;;;0.40;0.40;;;;;;;17.94;92.45;97918.59;5075451;28;20044;-66
2023/08/06 07:35:55;;;;;;;0.30;0.30;;;;;;;17.92;92.57;97916.09;5075698;28;20120;-65
2023/08/06 07:38:24;;;;;;;0.40;0.40;;;;;;;17.90;92.75;97923.09;5075186;28;20067;-65
2023/08/06 07:40:52;;;;;;;0.40;0.40;;;;;;;17.91;92.87;97923.94;5075377;28;20053;-64
2023/08/06 07:43:21;;;;;;;0.40;0.40;;;;;;;17.92;92.97;97931.59;5075636;28;20055;-64
2023/08/06 07:45:52;;;;;;;0.30;0.30;;;;;;;17.93;92.92;97929.84;5075741;28;20441;-65
2023/08/06 07:48:21;;;;;;;0.40;0.40;;;;;;;17.91;93.03;97923.94;5075245;28;20044;-65
2023/08/06 07:50:53;;;;;;;0.50;0.50;;;;;;;17.96;92.82;97929.66;5074176;28;20054;-64
2023/08/06 07:53:23;;;;;;;0.40;0.40;;;;;;;17.93;92.99;97933.25;5075144;28;20102;-65
2023/08/06 07:55:52;;;;;;;0.40;0.40;;;;;;;17.99;93.00;97926.91;5075359;28;20236;-64
2023/08/06 07:58:22;;;;;;;0.40;0.40;;;;;;;18.01;92.93;97930.22;5074949;28;20145;-65
2023/08/06 08:00:52;;;;;;;0.30;0.30;;;;;;;17.96;92.68;97932.25;5075299;28;20080;-64
2023/08/06 08:03:21;;;;;;;0.40;0.40;;;;;;;17.85;92.82;97937.22;5074926;28;20036;-65
2023/08/06 08:05:52;;;;;;;0.40;0.40;;;;;;;17.83;92.87;97937.28;5073905;28;20494;-64
2023/08/06 08:08:21;;;;;;;7.68;1.67;;;;;;;17.78;92.52;97935.91;5074821;28;20049;-65
2023/08/06 08:10:49;;;;;;;0.73;0.73;;;;;;;17.80;93.07;97928.91;5075018;28;20045;-64
2023/08/06 08:13:18;;;;;;;0.40;0.40;;;;;;;17.75;92.98;97939.50;5074930;28;20044;-65
2023/08/06 08:15:47;;;;;;;0.50;0.50;;;;;;;17.65;93.01;97950.41;5074628;28;20040;-65
2023/08/06 08:18:17;;;;;;;0.50;0.50;;;;;;;17.68;93.13;97952.84;5075290;28;20274;-65
2023/08/06 08:20:46;;;;;;;0.40;0.40;;;;;;;17.64;93.17;97946.16;5074519;28;20045;-65
2023/08/06 08:23:15;;;;;;;0.32;0.32;;;;;;;17.54;93.02;97955.38;5074587;28;20040;-64
2023/08/06 08:25:44;;;;;;;0.35;0.35;;;;;;;17.51;93.31;97955.50;5074379;28;20158;-64
2023/08/06 08:28:13;;;;;;;0.30;0.30;;;;;;;17.47;93.29;97964.34;5074385;28;20050;-65
2023/08/06 08:30:42;;;;;;;0.40;0.40;;;;;;;17.46;93.38;97962.66;5074966;28;20087;-65
2023/08/06 08:33:11;;;;;;;1.27;0.88;;;;;;;17.52;93.58;97962.34;5074489;28;20098;-64
2023/08/06 08:35:41;;;;;;;0.40;0.40;;;;;;;17.54;93.66;97965.69;5074559;28;20401;-63
2023/08/06 08:38:10;;;;;;;0.40;0.40;;;;;;;17.52;93.37;97968.34;5074557;28;20139;-65
2023/08/06 08:40:52;;;;;;;0.40;0.40;;;;;;;17.46;93.36;97973.81;5074348;28;20072;-63
2023/08/06 08:43:22;;;;;;;0.40;0.40;;;;;;;17.48;93.32;97977.13;5074182;28;20445;-65
2023/08/06 08:45:52;;;;;;;0.47;0.47;;;;;;;17.48;93.47;97981.47;5074046;28;20048;-65
2023/08/06 08:48:21;;;;;;;0.40;0.40;;;;;;;17.49;93.63;97977.97;5074305;28;20047;-64
2023/08/06 08:50:51;;;;;;;0.30;0.30;;;;;;;17.49;93.75;97978.81;5073952;28;20048;-64
2023/08/06 08:53:23;;;;;;;0.47;0.47;;;;;;;17.48;93.87;97976.28;5074525;28;20640;-65
2023/08/06 08:55:53;;;;;;;0.43;0.43;;;;;;;17.49;93.81;97980.56;5073846;28;20390;-65
2023/08/06 08:58:22;;;;;;;0.40;0.40;;;;;;;17.49;93.90;97978.81;5074474;28;20051;-65
2023/08/06 09:00:52;;;;;;;0.47;0.47;;;;;;;17.51;93.92;97983.88;5073902;28;20068;-63
2023/08/06 09:03:21;;;;;;;0.50;0.50;;;;;;;17.48;93.84;97984.88;5073798;28;20102;-64
2023/08/06 09:05:55;;;;;;;0.60;0.60;;;;;;;17.44;93.88;97991.13;5073912;28;20043;-63
2023/08/06 09:08:28;;;;;;;0.50;0.50;;;;;;;17.49;93.94;97993.44;5074028;28;20050;-63
2023/08/06 09:10:57;;;;;;;0.50;0.50;;;;;;;17.53;94.07;97994.97;5072846;28;20044;-64
2023/08/06 09:13:27;;;;;;;0.40;0.40;;;;;;;17.49;93.95;97993.44;5072523;28;20043;-65
2023/08/06 09:15:55;;;;;;;0.30;0.30;;;;;;;17.50;94.01;97997.66;5073643;28;20453;-64
2023/08/06 09:18:28;;;;;;;0.47;0.47;;;;;;;17.52;93.87;97998.44;5074359;28;20364;-65
2023/08/06 09:20:59;;;;;;;0.40;0.40;;;;;;;17.56;94.19;97999.97;5078112;28;20036;-64
2023/08/06 09:23:31;;;;;;;0.30;0.30;;;;;;;17.55;93.91;98008.59;5094055;28;20040;-65
2023/08/06 09:26:01;;;;;;;0.40;0.40;;;;;;;17.46;93.92;98009.09;5093690;28;20120;-65
2023/08/06 09:28:41;;;;;;;0.40;0.40;;;;;;;17.40;93.91;98011.09;5094168;28;20054;-65
2023/08/06 09:31:11;;;;;;;0.40;0.40;;;;;;;17.36;94.04;98025.06;5093728;28;20138;-62
2023/08/06 09:33:40;;;;;;;1.30;0.60;;;;;;;17.43;94.27;98026.41;5093515;28;20097;-65
2023/08/06 09:36:11;;;;;;;0.40;0.40;;;;;;;17.40;93.99;98017.97;5093963;28;20036;-62
2023/08/06 09:38:41;;;;;;;0.30;0.30;;;;;;;17.40;93.71;98021.41;5093620;28;20044;-65
2023/08/06 09:41:10;;;;;;;0.40;0.40;;;;;;;17.39;93.96;98030.06;5093835;28;20093;-64
2023/08/06 09:43:43;;;;;;;0.40;0.40;;;;;;;17.34;94.19;98028.66;5094071;28;20063;-63
2023/08/06 09:46:16;;;;;;;0.40;0.40;;;;;;;17.33;94.11;98032.97;5093510;28;20052;-63
2023/08/06 09:48:49;;;;;;;0.40;0.40;;;;;;;17.36;93.98;98035.41;5093651;28;20164;-64
2023/08/06 09:51:20;;;;;;;0.40;0.40;;;;;;;17.31;93.95;98034.81;5093766;28;20051;-63
2023/08/06 09:53:50;;;;;;;0.30;0.30;;;;;;;17.30;94.07;98046.03;5093500;28;20123;-65
2023/08/06 09:56:20;;;;;;;0.30;0.30;;;;;;;17.39;94.15;98030.06;5093707;28;20417;-65
2023/08/06 09:58:50;;;;;;;0.22;0.22;;;;;;;17.45;94.24;98034.03;5093457;28;20055;-64
2023/08/06 10:01:20;;;;;;;0.28;0.28;;;;;;;17.52;94.00;98034.56;5093483;28;20048;-64
2023/08/06 10:03:52;;;;;;;0.40;0.40;;;;;;;17.49;93.88;98035.56;5093682;28;20044;-63
2023/08/06 10:06:25;;;;;;;0.40;0.40;;;;;;;17.52;94.11;98034.56;5093708;28;20044;-63
2023/08/06 10:08:54;;;;;;;0.30;0.30;;;;;;;17.48;93.69;98038.19;5095467;28;20123;-63
2023/08/06 10:11:25;;;;;;;0.45;0.45;;;;;;;17.49;93.72;98034.72;5097361;28;20060;-64
2023/08/06 10:13:59;;;;;;;0.28;0.28;;;;;;;17.56;93.74;98036.91;5097207;28;20508;-64
2023/08/06 10:16:29;;;;;;;0.47;0.47;;;;;;;17.57;93.58;98032.56;5097282;28;20054;-65
2023/08/06 10:18:58;;;;;;;;;;;;;;;17.60;93.47;98033.25;5097612;28;20055;-63
2023/08/06 10:21:30;;;;;;;0.35;0.35;;;;;;;17.62;93.40;98022.81;5097679;28;20320;-64
2023/08/06 10:24:01;;;;;;;0.30;0.30;;;;;;;17.59;93.38;98023.03;5097121;28;20040;-65
2023/08/06 10:26:30;;;;;;;0.70;0.70;;;;;;;17.48;93.24;98015.81;5097240;28;20052;-65
2023/08/06 10:28:59;;;;;;;0.30;0.30;;;;;;;17.46;93.19;98027.16;5097778;28;20467;-64
2023/08/06 10:31:50;;;;;;;0.43;0.43;;;;;;;17.46;93.15;98029.72;5096870;28;20043;-65
2023/08/06 10:34:19;;;;;;;0.70;0.70;;;;;;;17.40;93.12;98042.03;5097114;28;20766;-64
2023/08/06 10:36:49;;;;;;;;;;;;;;;17.38;92.92;98048.19;5098149;28;20524;-65
2023/08/06 10:39:19;;;;;;;0.30;0.30;;;;;;;17.37;93.09;98049.94;5096819;28;19920;-64
2023/08/06 10:41:58;;;;;;;0.40;0.40;;;;;;;17.44;93.00;98053.84;5097364;28;20482;-65
2023/08/06 10:44:28;;;;;;;0.40;0.40;;;;;;;17.48;92.92;98048.53;5096943;28;20064;-64
2023/08/06 10:47:28;;;;;;;0.40;0.40;;;;;;;17.51;93.17;98050.94;5096622;28;20056;-66
2023/08/06 10:49:59;;;;;;;0.47;0.47;;;;;;;17.53;93.01;98046.56;5097707;28;20580;-64
2023/08/06 10:52:29;;;;;;;0.40;0.40;;;;;;;17.59;93.39;98051.41;5096809;28;20405;-65
2023/08/06 10:54:58;;;;;;;0.38;0.38;;;;;;;17.60;93.01;98060.78;5096565;28;20051;-65
2023/08/06 10:57:26;;;;;;;0.30;0.30;;;;;;;17.62;93.10;98071.84;5096388;28;20075;-63
2023/08/06 10:59:56;;;;;;;0.40;0.40;;;;;;;17.66;93.08;98063.03;5096307;28;20044;-65
2023/08/06 11:02:44;;;;;;;0.50;0.50;;;;;;;17.70;93.08;98067.94;5096655;28;20036;-66
2023/08/06 11:05:13;;;;;;;;;;;;;;;17.73;93.29;98064.38;5097050;28;20052;-63
2023/08/06 11:07:44;;;;;;;0.40;0.40;;;;;;;17.73;93.15;98069.53;5095327;28;19920;-65
2023/08/06 11:10:14;;;;;;;0.40;0.40;;;;;;;17.72;93.14;98070.44;5096218;28;20066;-65
2023/08/06 11:12:43;;;;;;;0.38;0.38;;;;;;;17.82;93.20;98064.69;5095928;28;20135;-65
2023/08/06 11:15:12;;;;;;;0.40;0.40;;;;;;;17.86;93.18;98071.34;5096022;28;20036;-64
2023/08/06 11:17:43;;;;;;;0.30;0.30;;;;;;;17.88;93.12;98084.97;5096486;28;20047;-63
2023/08/06 11:20:12;;;;;;;0.50;0.50;;;;;;;17.89;93.05;98090.97;5095690;28;20044;-64
2023/08/06 11:22:46;;;;;;;0.50;0.50;;;;;;;17.86;92.81;98096.31;5096052;28;20082;-65
2023/08/06 11:25:15;;;;;;;0.30;0.30;;;;;;;17.81;92.81;98103.47;5095962;28;20044;-65
2023/08/06 11:27:44;;;;;;;0.30;0.30;;;;;;;17.79;92.78;98110.47;5095796;28;20127;-62
2023/08/06 11:30:13;;;;;;;0.30;0.30;;;;;;;17.80;92.65;98117.31;5095955;28;20058;-64
2023/08/06 11:32:49;;;;;;;0.43;0.43;;;;;;;17.81;92.56;98129.28;5095794;28;20142;-66
2023/08/06 11:35:18;;;;;;;0.30;0.30;;;;;;;17.71;92.28;98128.09;5094504;28;20040;-65
2023/08/06 11:37:49;;;;;;;0.38;0.38;;;;;;;17.66;92.25;98130.13;5095977;28;20044;-65
2023/08/06 11:40:18;;;;;;;0.28;0.28;;;;;;;17.59;92.12;98128.78;5095700;28;20044;-65
2023/08/06 11:42:48;;;;;;;0.40;0.40;;;;;;;17.57;92.11;98139.19;5096193;28;20032;-65
2023/08/06 11:45:17;;;;;;;0.30;0.30;;;;;;;17.54;92.04;98147.06;5095569;28;20040;-65